createdAt,value
2022-10-30T00:01:20.291Z,1.00
2022-10-30T00:06:51.901Z,1.00
2022-10-30T00:12:25.640Z,1.00
2022-10-30T00:17:57.531Z,1.00
2022-10-30T00:23:28.867Z,0.00
2022-10-30T00:29:00.324Z,0.00
2022-10-30T00:34:32.431Z,1.00
2022-10-30T00:40:04.014Z,0.00
2022-10-30T00:45:35.852Z,0.00
2022-10-30T00:51:07.835Z,0.00
2022-10-30T00:56:39.471Z,0.00
2022-10-30T01:02:11.411Z,0.00
2022-10-30T01:07:43.259Z,0.00
2022-10-30T01:13:14.916Z,1.00
2022-10-30T01:18:46.872Z,0.00
2022-10-30T01:24:18.279Z,0.00
2022-10-30T01:29:50.012Z,0.00
2022-10-30T01:35:21.672Z,0.00
2022-10-30T01:40:53.057Z,0.00
2022-10-30T01:46:24.542Z,0.00
2022-10-30T01:51:56.620Z,0.00
2022-10-30T01:57:28.558Z,0.00
2022-10-30T02:03:00.692Z,0.00
2022-10-30T02:08:32.058Z,0.00
2022-10-30T02:14:03.825Z,0.00
2022-10-30T02:19:35.703Z,0.00
2022-10-30T02:25:07.918Z,0.00
2022-10-30T02:30:39.582Z,0.00
2022-10-30T02:36:11.936Z,0.00
2022-10-30T02:41:43.877Z,0.00
2022-10-30T02:47:15.902Z,1.00
2022-10-30T02:52:47.909Z,0.00
2022-10-30T02:58:20.119Z,0.00
2022-10-30T03:03:51.739Z,1.00
2022-10-30T03:09:23.689Z,1.00
2022-10-30T03:14:58.221Z,0.00
2022-10-30T03:20:30.056Z,0.00
2022-10-30T03:26:01.927Z,0.00
2022-10-30T03:31:33.721Z,0.00
2022-10-30T03:37:05.769Z,0.00
2022-10-30T03:42:37.818Z,1.00
2022-10-30T03:53:41.246Z,0.00
2022-10-30T03:59:12.946Z,0.00
2022-10-30T04:04:44.824Z,0.00
2022-10-30T04:10:20.952Z,0.00
2022-10-30T04:15:55.744Z,0.00
2022-10-30T04:21:20.263Z,0.00
2022-10-30T04:26:52.122Z,0.00
2022-10-30T04:32:25.687Z,0.00
2022-10-30T04:37:57.645Z,0.00
2022-10-30T04:43:29.113Z,0.00
2022-10-30T04:49:01.094Z,0.00
2022-10-30T04:54:32.733Z,1.00
2022-10-30T05:00:04.548Z,1.00
2022-10-30T05:05:36.253Z,1.00
2022-10-30T05:11:08.029Z,1.00
2022-10-30T05:16:39.848Z,2.00
2022-10-30T05:22:11.704Z,6.00
2022-10-30T05:27:43.606Z,17.00
2022-10-30T05:33:17.196Z,60.00
2022-10-30T05:38:48.907Z,170.00
2022-10-30T05:49:52.403Z,774.00
2022-10-30T05:55:24.205Z,1757.00
2022-10-30T06:00:55.951Z,2674.00
2022-10-30T06:03:07.286Z,3437.00
2022-10-30T06:14:12.609Z,9886.00
2022-10-30T06:19:44.055Z,17804.00
2022-10-30T06:25:21.920Z,37889.00
2022-10-30T06:30:53.656Z,37889.00
2022-10-30T06:36:25.471Z,37889.00
2022-10-30T06:41:57.367Z,37889.00
2022-10-30T06:47:28.945Z,37889.00
2022-10-30T06:53:00.811Z,37889.00
2022-10-30T06:58:32.545Z,37889.00
2022-10-30T07:04:04.349Z,37889.00
2022-10-30T07:09:35.739Z,37889.00
2022-10-30T07:15:08.298Z,37889.00
2022-10-30T07:20:40.011Z,37889.00
2022-10-30T07:26:11.690Z,37889.00
2022-10-30T07:31:57.623Z,37889.00
2022-10-30T07:37:15.233Z,37889.00
2022-10-30T07:42:47.015Z,37889.00
2022-10-30T07:48:18.759Z,37889.00
2022-10-30T07:53:50.665Z,37889.00
2022-10-30T07:59:22.377Z,37889.00
2022-10-30T08:04:54.200Z,37889.00
2022-10-30T08:10:26.080Z,37889.00
2022-10-30T08:15:57.819Z,37889.00
2022-10-30T08:21:29.508Z,37889.00
2022-10-30T08:27:01.442Z,37889.00
2022-10-30T08:32:33.063Z,37889.00
2022-10-30T08:38:04.797Z,37889.00
2022-10-30T08:43:36.562Z,37889.00
2022-10-30T08:49:08.212Z,36932.00
2022-10-30T08:54:40.201Z,32846.00
2022-10-30T09:05:41.424Z,28057.00
2022-10-30T09:11:13.188Z,28903.00
2022-10-30T09:16:45.074Z,30543.00
2022-10-30T09:22:17.083Z,30705.00
2022-10-30T09:27:48.765Z,32620.00
2022-10-30T09:33:20.443Z,30551.00
2022-10-30T09:38:52.239Z,24335.00
2022-10-30T09:44:24.069Z,25411.00
2022-10-30T09:49:55.962Z,24686.00
2022-10-30T09:55:27.625Z,20877.00
2022-10-30T10:01:03.063Z,23579.00
2022-10-30T10:06:31.245Z,23058.00
2022-10-30T10:12:03.109Z,22772.00
2022-10-30T10:17:34.820Z,22959.00
2022-10-30T10:23:06.818Z,21786.00
2022-10-30T10:28:38.829Z,20916.00
2022-10-30T10:34:10.722Z,19635.00
2022-10-30T10:39:42.244Z,20404.00
2022-10-30T10:45:13.987Z,17935.00
2022-10-30T10:50:45.950Z,19831.00
2022-10-30T10:56:19.499Z,18519.00
2022-10-30T11:01:51.938Z,18495.00
2022-10-30T11:04:14.156Z,18353.00
2022-10-30T11:09:45.973Z,18434.00
2022-10-30T11:15:17.512Z,16685.00
2022-10-30T11:20:49.353Z,17615.00
2022-10-30T11:26:21.098Z,17440.00
2022-10-30T11:31:52.613Z,16957.00
2022-10-30T11:37:24.391Z,14725.00
2022-10-30T11:42:56.446Z,15750.00
2022-10-30T11:48:28.034Z,16365.00
2022-10-30T11:53:59.750Z,15984.00
2022-10-30T11:59:31.836Z,16164.00
2022-10-30T12:05:03.580Z,16393.00
2022-10-30T12:10:36.682Z,16780.00
2022-10-30T12:18:30.268Z,16964.00
2022-10-30T12:24:01.722Z,16774.00
2022-10-30T12:30:02.501Z,16404.00
2022-10-30T12:35:05.330Z,15984.00
2022-10-30T12:40:37.480Z,15430.00
2022-10-30T12:46:09.255Z,14148.00
2022-10-30T13:02:39.909Z,13444.00
2022-10-30T13:08:11.689Z,12583.00
2022-10-30T13:13:43.516Z,12312.00
2022-10-30T13:19:15.144Z,11076.00
2022-10-30T13:24:46.866Z,11657.00
2022-10-30T13:30:18.711Z,9260.00
2022-10-30T13:35:50.660Z,9829.00
2022-10-30T13:41:22.133Z,11060.00
2022-10-30T13:46:55.392Z,10528.00
2022-10-30T13:52:27.253Z,9512.00
2022-10-30T13:57:58.854Z,10487.00
2022-10-30T14:03:31.027Z,10743.00
2022-10-30T14:09:03.167Z,11413.00
2022-10-30T14:14:34.852Z,10993.00
2022-10-30T14:20:12.522Z,10547.00
2022-10-30T14:25:38.181Z,9877.00
2022-10-30T14:36:39.355Z,7964.00
2022-10-30T14:42:11.097Z,7707.00
2022-10-30T14:50:04.393Z,6520.00
2022-10-30T14:55:36.221Z,5816.00
2022-10-30T15:01:08.018Z,5423.00
2022-10-30T15:06:39.810Z,4561.00
2022-10-30T15:23:10.158Z,4141.00
2022-10-30T15:28:41.957Z,4153.00
2022-10-30T15:34:14.195Z,4063.00
2022-10-30T15:39:45.550Z,3027.00
2022-10-30T15:45:17.272Z,2242.00
2022-10-30T15:56:20.061Z,961.00
2022-10-30T16:01:50.325Z,444.00
2022-10-30T16:07:22.181Z,228.00
2022-10-30T16:31:44.096Z,6.00
2022-10-30T16:37:16.068Z,4.00
2022-10-30T16:53:49.205Z,3.00
2022-10-30T16:59:20.757Z,2.00
2022-10-30T17:04:55.405Z,2.00
2022-10-30T17:10:24.219Z,3.00
2022-10-30T17:21:25.332Z,3.00
2022-10-30T17:34:47.467Z,3.00
2022-10-30T17:56:03.628Z,2.00
2022-10-30T18:01:37.415Z,2.00
2022-10-30T18:07:09.012Z,2.00
2022-10-30T18:12:41.097Z,2.00
2022-10-30T18:18:12.843Z,3.00
2022-10-30T18:26:05.013Z,2.00
2022-10-30T18:31:36.945Z,2.00
2022-10-30T18:37:08.666Z,2.00
2022-10-30T18:42:40.621Z,2.00
2022-10-30T18:48:12.742Z,3.00
2022-10-30T18:53:44.673Z,3.00
2022-10-30T18:59:16.914Z,1.00
2022-10-30T19:04:48.570Z,3.00
2022-10-30T19:10:20.094Z,2.00
2022-10-30T19:15:54.800Z,2.00
2022-10-30T19:21:23.672Z,2.00
2022-10-30T19:26:55.566Z,2.00
2022-10-30T19:34:47.219Z,2.00
2022-10-30T19:40:19.028Z,2.00
2022-10-30T19:45:52.872Z,3.00
2022-10-30T19:51:22.545Z,2.00
2022-10-30T19:56:54.492Z,2.00
2022-10-30T20:02:26.485Z,2.00
2022-10-30T20:07:58.442Z,2.00
2022-10-30T20:13:29.750Z,2.00
2022-10-30T20:19:01.504Z,3.00
2022-10-30T20:24:33.003Z,2.00
2022-10-30T20:30:04.660Z,2.00
2022-10-30T20:35:36.611Z,2.00
2022-10-30T20:41:08.034Z,2.00
2022-10-30T20:46:39.644Z,2.00
2022-10-30T20:52:11.833Z,2.00
2022-10-30T20:57:43.660Z,2.00
2022-10-30T21:03:15.421Z,2.00
2022-10-30T21:08:47.061Z,3.00
2022-10-30T21:14:18.656Z,2.00
2022-10-30T21:19:50.183Z,2.00
2022-10-30T21:25:21.875Z,2.00
2022-10-30T21:30:54.027Z,2.00
2022-10-30T21:36:25.284Z,1.00
2022-10-30T21:41:56.866Z,2.00
2022-10-30T21:47:28.417Z,2.00
2022-10-30T21:53:00.079Z,2.00
2022-10-30T21:58:31.660Z,2.00
2022-10-30T22:04:03.329Z,1.00
2022-10-30T22:09:35.105Z,2.00
2022-10-30T22:15:06.798Z,2.00
2022-10-30T22:20:38.651Z,2.00
2022-10-30T22:26:10.374Z,2.00
2022-10-30T22:31:42.189Z,1.00
2022-10-30T22:37:13.703Z,2.00
2022-10-30T22:42:45.652Z,2.00
2022-10-30T22:48:17.321Z,2.00
2022-10-30T22:50:41.163Z,2.00
2022-10-30T22:56:12.671Z,1.00
2022-10-30T23:01:44.537Z,1.00
2022-10-30T23:07:16.156Z,2.00
2022-10-30T23:12:47.916Z,1.00
2022-10-30T23:18:19.840Z,0.00
2022-10-30T23:23:51.579Z,0.00
2022-10-30T23:29:23.285Z,0.00
2022-10-30T23:34:55.135Z,0.00
2022-10-30T23:40:26.916Z,0.00
2022-10-30T23:45:58.481Z,0.00
2022-10-30T23:51:30.274Z,1.00
2022-10-30T23:57:01.867Z,0.00
